createdAt,value
2018-08-11T00:00:57.555Z,1000.14
2018-08-11T00:01:57.594Z,1000.11
2018-08-11T00:02:57.631Z,1000.10
2018-08-11T00:03:57.670Z,1000.07
2018-08-11T00:04:57.710Z,1000.04
2018-08-11T00:05:57.752Z,1000.04
2018-08-11T00:06:57.784Z,1000.08
2018-08-11T00:07:57.823Z,1000.06
2018-08-11T00:08:57.923Z,1000.03
2018-08-11T00:09:57.900Z,1000.07
2018-08-11T00:10:57.935Z,1000.05
2018-08-11T00:11:57.975Z,1000.04
2018-08-11T00:12:58.015Z,999.99
2018-08-11T00:13:58.053Z,1000.06
2018-08-11T00:14:58.089Z,1000.00
2018-08-11T00:15:58.452Z,1000.04
2018-08-11T00:16:58.169Z,1000.04
2018-08-11T00:17:58.203Z,1000.02
2018-08-11T00:18:58.242Z,1000.03
2018-08-11T00:19:58.285Z,1000.05
2018-08-11T00:20:58.319Z,1000.04
2018-08-11T00:21:58.356Z,1000.05
2018-08-11T00:22:58.393Z,1000.01
2018-08-11T00:23:58.431Z,1000.04
2018-08-11T00:24:58.470Z,999.99
2018-08-11T00:25:58.507Z,1000.00
2018-08-11T00:26:58.545Z,999.96
2018-08-11T00:27:58.585Z,999.98
2018-08-11T00:28:58.623Z,999.97
2018-08-11T00:29:58.659Z,999.92
2018-08-11T00:30:58.698Z,999.95
2018-08-11T00:31:58.736Z,999.94
2018-08-11T00:32:58.775Z,999.95
2018-08-11T00:33:58.812Z,999.96
2018-08-11T00:34:58.850Z,999.95
2018-08-11T00:35:58.887Z,999.98
2018-08-11T00:36:58.925Z,999.99
2018-08-11T00:37:58.962Z,999.98
2018-08-11T00:38:59.008Z,999.98
2018-08-11T00:39:59.041Z,999.97
2018-08-11T00:40:59.078Z,999.97
2018-08-11T00:41:59.121Z,999.97
2018-08-11T00:42:59.154Z,999.96
2018-08-11T00:43:59.196Z,999.94
2018-08-11T00:44:59.247Z,999.93
2018-08-11T00:45:59.278Z,999.94
2018-08-11T00:46:59.307Z,999.97
2018-08-11T00:47:59.342Z,999.93
2018-08-11T00:48:59.860Z,999.94
2018-08-11T00:49:59.424Z,999.94
2018-08-11T00:50:59.457Z,999.90
2018-08-11T00:51:59.495Z,999.93
2018-08-11T00:52:59.532Z,999.91
2018-08-11T00:53:59.568Z,999.96
2018-08-11T00:54:59.607Z,999.94
2018-08-11T00:55:59.659Z,999.98
2018-08-11T00:56:59.683Z,999.96
2018-08-11T00:57:59.720Z,999.94
2018-08-11T00:58:59.759Z,999.95
2018-08-11T00:59:59.796Z,999.92
2018-08-11T01:00:59.835Z,999.94
2018-08-11T01:01:59.872Z,999.94
2018-08-11T01:02:59.910Z,999.94
2018-08-11T01:03:59.986Z,999.92
2018-08-11T01:04:59.989Z,999.92
2018-08-11T01:06:00.024Z,999.90
2018-08-11T01:07:00.063Z,999.91
2018-08-11T01:08:00.101Z,999.88
2018-08-11T01:09:00.143Z,999.85
2018-08-11T01:10:00.176Z,999.81
2018-08-11T01:11:00.249Z,999.89
2018-08-11T01:12:00.253Z,999.93
2018-08-11T01:13:00.291Z,999.91
2018-08-11T01:14:00.329Z,999.87
2018-08-11T01:15:00.370Z,999.85
2018-08-11T01:16:00.405Z,999.87
2018-08-11T01:17:00.444Z,999.85
2018-08-11T01:18:00.479Z,999.84
2018-08-11T01:19:00.518Z,999.85
2018-08-11T01:20:00.557Z,999.82
2018-08-11T01:21:00.595Z,999.81
2018-08-11T01:22:00.631Z,999.83
2018-08-11T01:23:00.672Z,999.86
2018-08-11T01:24:00.708Z,999.86
2018-08-11T01:25:00.746Z,999.84
2018-08-11T01:26:00.783Z,999.85
2018-08-11T01:27:00.828Z,999.89
2018-08-11T01:28:00.858Z,999.88
2018-08-11T01:29:00.896Z,999.90
2018-08-11T01:30:00.934Z,999.92
2018-08-11T01:31:00.970Z,999.92
2018-08-11T01:32:01.011Z,999.89
2018-08-11T01:33:01.047Z,999.91
2018-08-11T01:34:01.085Z,999.87
2018-08-11T01:35:01.124Z,999.88
2018-08-11T01:36:01.160Z,999.84
2018-08-11T01:37:01.198Z,999.84
2018-08-11T01:38:01.245Z,999.87
2018-08-11T01:39:01.273Z,999.87
2018-08-11T01:40:01.319Z,999.86
2018-08-11T01:41:01.350Z,999.84
2018-08-11T01:42:01.387Z,999.84
2018-08-11T01:43:01.428Z,999.83
2018-08-11T01:44:01.477Z,999.83
2018-08-11T01:45:01.500Z,999.84
2018-08-11T01:46:01.539Z,999.84
2018-08-11T01:47:01.575Z,999.83
2018-08-11T01:48:01.612Z,999.79
2018-08-11T01:49:01.650Z,999.84
2018-08-11T01:50:01.703Z,999.83
2018-08-11T01:51:01.727Z,999.78
2018-08-11T01:52:01.764Z,999.79
2018-08-11T01:53:01.800Z,999.79
2018-08-11T01:54:01.839Z,999.77
2018-08-11T01:55:01.879Z,999.77
2018-08-11T01:56:01.914Z,999.79
2018-08-11T01:57:01.952Z,999.81
2018-08-11T01:58:01.988Z,999.81
2018-08-11T01:59:02.029Z,999.78
2018-08-11T02:00:02.065Z,999.77
2018-08-11T02:01:02.101Z,999.77
2018-08-11T02:02:02.137Z,999.74
2018-08-11T02:03:02.176Z,999.73
2018-08-11T02:04:02.213Z,999.72
2018-08-11T02:05:02.254Z,999.73
2018-08-11T02:06:02.288Z,999.74
2018-08-11T02:07:02.325Z,999.76
2018-08-11T02:08:02.372Z,999.73
2018-08-11T02:09:02.405Z,999.70
2018-08-11T02:10:02.440Z,999.73
2018-08-11T02:11:02.478Z,999.70
2018-08-11T02:12:02.514Z,999.73
2018-08-11T02:13:02.554Z,999.66
2018-08-11T02:14:02.604Z,999.68
2018-08-11T02:15:02.628Z,999.71
2018-08-11T02:16:02.665Z,999.68
2018-08-11T02:17:02.702Z,999.64
2018-08-11T02:18:02.738Z,999.67
2018-08-11T02:19:02.776Z,999.67
2018-08-11T02:20:02.816Z,999.63
2018-08-11T02:21:02.851Z,999.65
2018-08-11T02:22:02.895Z,999.64
2018-08-11T02:23:02.927Z,999.65
2018-08-11T02:24:02.963Z,999.62
2018-08-11T02:25:03.002Z,999.62
2018-08-11T02:26:03.041Z,999.63
2018-08-11T02:27:03.077Z,999.58
2018-08-11T02:28:03.114Z,999.54
2018-08-11T02:29:03.153Z,999.54
2018-08-11T02:30:03.190Z,999.56
2018-08-11T02:31:03.226Z,999.55
2018-08-11T02:32:03.274Z,999.60
2018-08-11T02:33:03.305Z,999.57
2018-08-11T02:34:03.339Z,999.54
2018-08-11T02:35:03.375Z,999.55
2018-08-11T02:36:03.415Z,999.56
2018-08-11T02:37:03.461Z,999.54
2018-08-11T02:38:03.490Z,999.53
2018-08-11T02:39:03.527Z,999.53
2018-08-11T02:40:03.568Z,999.47
2018-08-11T02:41:03.605Z,999.49
2018-08-11T02:42:03.639Z,999.47
2018-08-11T02:43:03.678Z,999.47
2018-08-11T02:44:03.714Z,999.49
2018-08-11T02:45:03.752Z,999.50
2018-08-11T02:46:03.801Z,999.50
2018-08-11T02:47:03.829Z,999.49
2018-08-11T02:48:03.864Z,999.47
2018-08-11T02:49:03.903Z,999.49
2018-08-11T02:50:03.940Z,999.49
2018-08-11T02:51:03.978Z,999.47
2018-08-11T02:52:04.015Z,999.45
2018-08-11T02:53:04.054Z,999.43
2018-08-11T02:54:04.100Z,999.44
2018-08-11T02:55:04.129Z,999.40
2018-08-11T02:56:04.168Z,999.36
2018-08-11T02:57:04.205Z,999.38
2018-08-11T02:58:04.241Z,999.38
2018-08-11T02:59:04.281Z,999.35
2018-08-11T03:00:04.317Z,999.35
2018-08-11T03:01:04.356Z,999.37
2018-08-11T03:02:04.393Z,999.39
2018-08-11T03:03:04.432Z,999.41
2018-08-11T03:04:04.469Z,999.39
2018-08-11T03:05:04.504Z,999.38
2018-08-11T03:06:04.641Z,999.40
2018-08-11T03:07:04.579Z,999.41
2018-08-11T03:08:04.615Z,999.42
2018-08-11T03:09:04.654Z,999.42
2018-08-11T03:10:04.690Z,999.41
2018-08-11T03:11:04.729Z,999.40
2018-08-11T03:12:04.768Z,999.39
2018-08-11T03:13:04.805Z,999.40
2018-08-11T03:14:04.878Z,999.41
2018-08-11T03:15:04.880Z,999.41
2018-08-11T03:16:04.917Z,999.42
2018-08-11T03:17:04.960Z,999.40
2018-08-11T03:18:04.995Z,999.35
2018-08-11T03:19:05.039Z,999.34
2018-08-11T03:20:05.069Z,999.28
2018-08-11T03:21:05.107Z,999.31
2018-08-11T03:22:05.142Z,999.30
2018-08-11T03:23:05.184Z,999.30
2018-08-11T03:24:05.223Z,999.33
2018-08-11T03:25:05.261Z,999.34
2018-08-11T03:26:05.302Z,999.32
2018-08-11T03:27:05.331Z,999.39
2018-08-11T03:28:05.372Z,999.37
2018-08-11T03:29:05.409Z,999.35
2018-08-11T03:30:05.446Z,999.33
2018-08-11T03:31:05.482Z,999.36
2018-08-11T03:32:05.521Z,999.37
2018-08-11T03:33:05.561Z,999.41
2018-08-11T03:34:05.599Z,999.39
2018-08-11T03:35:05.635Z,999.43
2018-08-11T03:36:05.672Z,999.39
2018-08-11T03:37:05.710Z,999.42
2018-08-11T03:38:05.747Z,999.41
2018-08-11T03:39:05.786Z,999.44
2018-08-11T03:40:05.823Z,999.41
2018-08-11T03:41:05.861Z,999.40
2018-08-11T03:42:05.900Z,999.41
2018-08-11T03:43:05.937Z,999.41
2018-08-11T03:44:05.975Z,999.39
2018-08-11T03:45:06.014Z,999.38
2018-08-11T03:46:06.115Z,999.39
2018-08-11T03:47:06.089Z,999.37
2018-08-11T03:48:06.128Z,999.41
2018-08-11T03:49:06.165Z,999.39
2018-08-11T03:50:06.203Z,999.37
2018-08-11T03:51:06.240Z,999.35
2018-08-11T03:52:06.278Z,999.34
2018-08-11T03:53:06.319Z,999.36
2018-08-11T03:54:06.353Z,999.39
2018-08-11T03:55:06.392Z,999.38
2018-08-11T03:56:06.433Z,999.40
2018-08-11T03:57:06.470Z,999.34
2018-08-11T03:58:06.505Z,999.36
2018-08-11T03:59:06.544Z,999.35
2018-08-11T04:00:06.588Z,999.37
2018-08-11T04:01:06.620Z,999.40
2018-08-11T04:02:06.659Z,999.41
2018-08-11T04:03:06.697Z,999.46
2018-08-11T04:04:06.737Z,999.45
2018-08-11T04:05:06.774Z,999.44
2018-08-11T04:06:06.810Z,999.42
2018-08-11T04:07:06.894Z,999.43
2018-08-11T04:08:06.885Z,999.44
2018-08-11T04:09:06.932Z,999.37
2018-08-11T04:10:06.961Z,999.42
2018-08-11T04:11:07.001Z,999.43
2018-08-11T04:12:07.038Z,999.43
2018-08-11T04:13:07.077Z,999.46
2018-08-11T04:14:07.116Z,999.48
2018-08-11T04:15:07.152Z,999.50
2018-08-11T04:16:07.193Z,999.47
2018-08-11T04:17:07.231Z,999.48
2018-08-11T04:18:07.266Z,999.48
2018-08-11T04:19:07.305Z,999.47
2018-08-11T04:20:07.346Z,999.47
2018-08-11T04:21:07.382Z,999.45
2018-08-11T04:22:07.421Z,999.50
2018-08-11T04:23:07.458Z,999.48
2018-08-11T04:24:07.497Z,999.48
2018-08-11T04:25:07.538Z,999.46
2018-08-11T04:26:07.574Z,999.45
2018-08-11T04:27:07.612Z,999.48
2018-08-11T04:28:07.652Z,999.51
2018-08-11T04:29:07.687Z,999.50
2018-08-11T04:30:07.726Z,999.47
2018-08-11T04:31:07.768Z,999.49
2018-08-11T04:32:07.803Z,999.50
2018-08-11T04:33:07.843Z,999.52
2018-08-11T04:34:07.880Z,999.54
2018-08-11T04:35:07.918Z,999.45
2018-08-11T04:36:07.959Z,999.44
2018-08-11T04:37:07.994Z,999.44
2018-08-11T04:38:08.031Z,999.44
2018-08-11T04:39:08.069Z,999.44
2018-08-11T04:40:08.111Z,999.43
2018-08-11T04:41:08.148Z,999.47
2018-08-11T04:42:08.237Z,999.44
2018-08-11T04:43:08.223Z,999.44
2018-08-11T04:44:08.262Z,999.46
2018-08-11T04:45:08.300Z,999.45
2018-08-11T04:46:08.337Z,999.47
2018-08-11T04:47:08.378Z,999.51
2018-08-11T04:48:08.416Z,999.47
2018-08-11T04:49:08.453Z,999.47
2018-08-11T04:50:08.491Z,999.46
2018-08-11T04:51:08.530Z,999.46
2018-08-11T04:52:08.568Z,999.46
2018-08-11T04:53:08.608Z,999.48
2018-08-11T04:54:08.648Z,999.49
2018-08-11T04:55:08.688Z,999.49
2018-08-11T04:56:08.722Z,999.54
2018-08-11T04:57:08.760Z,999.54
2018-08-11T04:58:08.803Z,999.53
2018-08-11T04:59:08.844Z,999.50
2018-08-11T05:00:08.874Z,999.55
2018-08-11T05:01:08.918Z,999.56
2018-08-11T05:02:08.953Z,999.58
2018-08-11T05:03:08.992Z,999.56
2018-08-11T05:04:09.027Z,999.57
2018-08-11T05:05:09.068Z,999.60
2018-08-11T05:06:09.108Z,999.63
2018-08-11T05:07:09.143Z,999.64
2018-08-11T05:08:09.181Z,999.62
2018-08-11T05:09:09.220Z,999.61
2018-08-11T05:10:09.259Z,999.59
2018-08-11T05:11:09.295Z,999.62
2018-08-11T05:12:09.337Z,999.62
2018-08-11T05:13:09.378Z,999.64
2018-08-11T05:14:09.412Z,999.62
2018-08-11T05:15:09.451Z,999.64
2018-08-11T05:16:09.491Z,999.65
2018-08-11T05:17:09.536Z,999.63
2018-08-11T05:18:09.568Z,999.69
2018-08-11T05:19:09.604Z,999.72
2018-08-11T05:20:09.645Z,999.72
2018-08-11T05:21:09.681Z,999.76
2018-08-11T05:22:09.721Z,999.78
2018-08-11T05:23:09.758Z,999.76
2018-08-11T05:24:09.800Z,999.75
2018-08-11T05:25:09.837Z,999.77
2018-08-11T05:26:09.883Z,999.76
2018-08-11T05:27:09.913Z,999.77
2018-08-11T05:28:09.960Z,999.77
2018-08-11T05:29:09.992Z,999.78
2018-08-11T05:30:10.036Z,999.77
2018-08-11T05:31:10.072Z,999.81
2018-08-11T05:32:10.108Z,999.81
2018-08-11T05:33:10.213Z,999.80
2018-08-11T05:34:10.184Z,999.83
2018-08-11T05:35:10.225Z,999.87
2018-08-11T05:36:10.270Z,999.85
2018-08-11T05:37:10.300Z,999.86
2018-08-11T05:38:10.339Z,999.88
2018-08-11T05:39:10.377Z,999.88
2018-08-11T05:40:10.414Z,999.88
2018-08-11T05:41:10.454Z,999.88
2018-08-11T05:42:10.491Z,999.87
2018-08-11T05:43:10.531Z,999.90
2018-08-11T05:44:10.569Z,999.89
2018-08-11T05:45:10.608Z,999.88
2018-08-11T05:46:10.656Z,999.91
2018-08-11T05:47:10.718Z,999.93
2018-08-11T05:48:10.727Z,999.98
2018-08-11T05:49:10.765Z,999.98
2018-08-11T05:50:10.801Z,999.96
2018-08-11T05:51:10.849Z,1000.00
2018-08-11T05:52:10.883Z,999.99
2018-08-11T05:53:10.928Z,999.93
2018-08-11T05:54:10.958Z,999.98
2018-08-11T05:55:11.060Z,999.95
2018-08-11T05:56:11.036Z,999.98
2018-08-11T05:57:11.084Z,999.97
2018-08-11T05:58:11.113Z,999.96
2018-08-11T05:59:11.152Z,999.91
2018-08-11T06:00:11.196Z,999.96
2018-08-11T06:01:11.231Z,999.97
2018-08-11T06:02:11.271Z,999.98
2018-08-11T06:03:11.307Z,1000.00
2018-08-11T06:04:11.350Z,1000.02
2018-08-11T06:05:11.388Z,1000.07
2018-08-11T06:06:11.425Z,1000.11
2018-08-11T06:07:11.465Z,1000.12
2018-08-11T06:08:11.514Z,1000.13
2018-08-11T06:09:11.543Z,1000.17
2018-08-11T06:10:11.582Z,1000.17
2018-08-11T06:11:11.624Z,1000.20
2018-08-11T06:12:11.660Z,1000.20
2018-08-11T06:13:11.703Z,1000.19
2018-08-11T06:14:11.740Z,1000.19
2018-08-11T06:15:11.783Z,1000.19
2018-08-11T06:16:11.819Z,1000.20
2018-08-11T06:17:11.896Z,1000.17
2018-08-11T06:18:11.899Z,1000.17
2018-08-11T06:19:11.937Z,1000.17
2018-08-11T06:20:11.998Z,1000.20
2018-08-11T06:21:12.083Z,1000.18
2018-08-11T06:22:12.057Z,1000.19
2018-08-11T06:23:12.097Z,1000.23
2018-08-11T06:24:12.149Z,1000.24
2018-08-11T06:25:12.181Z,1000.30
2018-08-11T06:26:12.214Z,1000.34
2018-08-11T06:27:12.464Z,1000.41
2018-08-11T06:28:12.304Z,1000.41
2018-08-11T06:29:12.338Z,1000.45
2018-08-11T06:30:12.387Z,1000.44
2018-08-11T06:31:12.433Z,1000.41
2018-08-11T06:32:12.509Z,1000.40
2018-08-11T06:33:12.496Z,1000.42
2018-08-11T06:34:12.538Z,1000.42
2018-08-11T06:35:12.581Z,1000.40
2018-08-11T06:36:12.617Z,1000.40
2018-08-11T06:37:13.167Z,1000.45
2018-08-11T06:38:12.696Z,1000.55
2018-08-11T06:39:12.744Z,1000.54
2018-08-11T06:40:12.779Z,1000.51
2018-08-11T06:41:12.815Z,1000.44
2018-08-11T06:42:12.858Z,1000.43
2018-08-11T06:43:12.897Z,1000.39
2018-08-11T06:44:12.971Z,1000.39
2018-08-11T06:45:12.977Z,1000.43
2018-08-11T06:46:13.020Z,1000.39
2018-08-11T06:47:13.065Z,1000.43
2018-08-11T06:48:13.100Z,1000.46
2018-08-11T06:49:13.142Z,1000.46
2018-08-11T06:50:13.182Z,1000.47
2018-08-11T06:51:13.218Z,1000.38
2018-08-11T06:52:13.259Z,1000.32
2018-08-11T06:53:13.304Z,1000.35
2018-08-11T06:54:13.338Z,1000.33
2018-08-11T06:55:13.378Z,1000.38
2018-08-11T06:56:13.421Z,1000.35
2018-08-11T06:57:13.460Z,1000.39
2018-08-11T06:58:13.498Z,1000.36
2018-08-11T06:59:13.539Z,1000.36
2018-08-11T07:00:13.592Z,1000.38
2018-08-11T07:01:13.621Z,1000.38
2018-08-11T07:02:13.661Z,1000.42
2018-08-11T07:03:13.704Z,1000.49
2018-08-11T07:04:13.743Z,1000.58
2018-08-11T07:05:13.784Z,1000.69
2018-08-11T07:06:13.822Z,1000.74
2018-08-11T07:07:13.863Z,1000.71
2018-08-11T07:08:13.912Z,1000.79
2018-08-11T07:09:13.950Z,1000.72
2018-08-11T07:10:13.987Z,1000.71
2018-08-11T07:11:14.024Z,1000.69
2018-08-11T07:12:14.065Z,1000.62
2018-08-11T07:13:14.105Z,1000.63
2018-08-11T07:14:14.144Z,1000.64
2018-08-11T07:15:14.228Z,1000.64
2018-08-11T07:16:14.232Z,1000.68
2018-08-11T07:17:14.267Z,1000.66
2018-08-11T07:18:14.878Z,1000.66
2018-08-11T07:19:14.473Z,1000.64
2018-08-11T07:20:14.385Z,1000.65
2018-08-11T07:21:14.508Z,1000.63
2018-08-11T07:22:14.467Z,1000.64
2018-08-11T07:23:14.512Z,1000.76
2018-08-11T07:24:14.545Z,1000.73
2018-08-11T07:25:14.587Z,1000.69
2018-08-11T07:26:14.631Z,1000.64
2018-08-11T07:27:14.672Z,1000.66
2018-08-11T07:28:14.705Z,1000.65
2018-08-11T07:29:14.746Z,1000.63
2018-08-11T07:30:14.810Z,1000.63
2018-08-11T07:31:14.831Z,1000.54
2018-08-11T07:32:14.882Z,1000.53
2018-08-11T07:33:14.909Z,1000.58
2018-08-11T07:34:14.951Z,1000.57
2018-08-11T07:35:14.985Z,1000.53
2018-08-11T07:36:15.088Z,1000.57
2018-08-11T07:37:15.067Z,1000.56
2018-08-11T07:38:15.108Z,1000.52
2018-08-11T07:39:15.152Z,1000.57
2018-08-11T07:40:15.186Z,1000.58
2018-08-11T07:41:15.270Z,1000.56
2018-08-11T07:42:15.267Z,1000.54
2018-08-11T07:43:15.311Z,1000.61
2018-08-11T07:44:15.349Z,1000.56
2018-08-11T07:45:15.390Z,1000.58
2018-08-11T07:46:15.430Z,1000.56
2018-08-11T07:47:15.478Z,1000.53
2018-08-11T07:48:15.511Z,1000.51
2018-08-11T07:49:15.551Z,1000.44
2018-08-11T07:50:15.655Z,1000.46
2018-08-11T07:51:15.631Z,1000.47
2018-08-11T07:52:15.681Z,1000.46
2018-08-11T07:53:15.717Z,1000.49
2018-08-11T07:54:15.753Z,1000.53
2018-08-11T07:55:15.802Z,1000.52
2018-08-11T07:56:15.835Z,1000.59
2018-08-11T07:57:15.876Z,1000.56
2018-08-11T07:58:15.915Z,1000.56
2018-08-11T07:59:15.958Z,1000.59
2018-08-11T08:00:15.997Z,1000.62
2018-08-11T08:01:16.072Z,1000.66
2018-08-11T08:02:16.077Z,1000.58
2018-08-11T08:03:16.119Z,1000.57
2018-08-11T08:04:16.159Z,1000.62
2018-08-11T08:05:16.201Z,1000.59
2018-08-11T08:06:16.243Z,1000.59
2018-08-11T08:07:16.277Z,1000.61
2018-08-11T08:08:16.361Z,1000.61
2018-08-11T08:09:16.366Z,1000.65
2018-08-11T08:10:16.404Z,1000.60
2018-08-11T08:11:16.451Z,1000.60
2018-08-11T08:12:16.481Z,1000.61
2018-08-11T08:13:16.521Z,1000.55
2018-08-11T08:14:16.567Z,1000.63
2018-08-11T08:15:16.605Z,1000.62
2018-08-11T08:16:16.643Z,1000.70
2018-08-11T08:17:16.685Z,1000.66
2018-08-11T08:18:16.723Z,1000.64
2018-08-11T08:19:16.763Z,1000.68
2018-08-11T08:20:16.802Z,1000.70
2018-08-11T08:21:16.847Z,1000.65
2018-08-11T08:22:16.883Z,1000.73
2018-08-11T08:23:16.924Z,1000.70
2018-08-11T08:24:16.962Z,1000.73
2018-08-11T08:25:17.005Z,1000.72
2018-08-11T08:26:17.143Z,1000.71
2018-08-11T08:27:17.099Z,1000.74
2018-08-11T08:28:17.127Z,1000.73
2018-08-11T08:29:17.166Z,1000.71
2018-08-11T08:30:17.204Z,1000.67
2018-08-11T08:31:17.246Z,1000.72
2018-08-11T08:32:17.286Z,1000.75
2018-08-11T08:33:17.331Z,1000.80
2018-08-11T08:34:17.368Z,1000.83
2018-08-11T08:35:17.408Z,1000.91
2018-08-11T08:36:17.447Z,1000.89
2018-08-11T08:37:17.486Z,1000.90
2018-08-11T08:38:17.528Z,1000.80
2018-08-11T08:39:17.569Z,1000.79
2018-08-11T08:40:17.609Z,1000.83
2018-08-11T08:41:17.657Z,1000.87
2018-08-11T08:42:17.698Z,1000.77
2018-08-11T08:43:17.736Z,1000.84
2018-08-11T08:44:17.768Z,1000.80
2018-08-11T08:45:17.814Z,1000.84
2018-08-11T08:46:17.849Z,1000.80
2018-08-11T08:47:17.891Z,1000.80
2018-08-11T08:48:18.135Z,1000.88
2018-08-11T08:49:17.981Z,1000.84
2018-08-11T08:50:18.022Z,1000.87
2018-08-11T08:51:18.063Z,1000.85
2018-08-11T08:52:18.108Z,1000.85
2018-08-11T08:53:18.164Z,1000.85
2018-08-11T08:54:18.176Z,1000.87
2018-08-11T08:55:18.218Z,1000.83
2018-08-11T08:56:18.257Z,1000.84
2018-08-11T08:57:18.299Z,1000.95
2018-08-11T08:58:18.339Z,1000.93
2018-08-11T08:59:18.388Z,1001.03
2018-08-11T09:00:18.439Z,1001.08
2018-08-11T09:01:18.462Z,1000.89
2018-08-11T09:02:18.502Z,1000.92
2018-08-11T09:03:18.543Z,1000.90
2018-08-11T09:04:18.585Z,1000.83
2018-08-11T09:05:18.625Z,1000.85
2018-08-11T09:06:18.666Z,1000.81
2018-08-11T09:07:18.708Z,1000.79
2018-08-11T09:08:18.750Z,1000.80
2018-08-11T09:09:18.792Z,1000.79
2018-08-11T09:10:18.832Z,1000.79
2018-08-11T09:11:18.869Z,1000.80
2018-08-11T09:12:18.909Z,1000.82
2018-08-11T09:13:18.955Z,1000.86
2018-08-11T09:14:18.995Z,1000.88
2018-08-11T09:15:19.033Z,1000.88
2018-08-11T09:16:19.073Z,1000.95
2018-08-11T09:17:19.120Z,1000.88
2018-08-11T09:18:19.154Z,1000.89
2018-08-11T09:19:19.207Z,1000.90
2018-08-11T09:20:19.236Z,1000.93
2018-08-11T09:21:19.292Z,1000.95
2018-08-11T09:22:19.323Z,1001.05
2018-08-11T09:23:19.358Z,1000.97
2018-08-11T09:24:19.398Z,1001.06
2018-08-11T09:25:19.440Z,1001.10
2018-08-11T09:26:19.482Z,1001.07
2018-08-11T09:27:19.523Z,1001.04
2018-08-11T09:28:20.538Z,1000.99
2018-08-11T09:29:19.699Z,1000.98
2018-08-11T09:30:19.646Z,1001.04
2018-08-11T09:31:19.691Z,1001.07
2018-08-11T09:32:19.727Z,1001.09
2018-08-11T09:33:19.768Z,1001.05
2018-08-11T09:34:19.810Z,1001.09
2018-08-11T09:35:19.851Z,1001.11
2018-08-11T09:36:19.893Z,1001.09
2018-08-11T09:37:19.934Z,1001.17
2018-08-11T09:38:20.025Z,1001.12
2018-08-11T09:39:20.016Z,1001.12
2018-08-11T09:40:20.056Z,1001.12
2018-08-11T09:41:20.100Z,1001.11
2018-08-11T09:42:20.141Z,1001.09
2018-08-11T09:43:20.180Z,1001.08
2018-08-11T09:44:20.260Z,1001.11
2018-08-11T09:45:20.266Z,1001.15
2018-08-11T09:46:20.309Z,1001.12
2018-08-11T09:47:20.348Z,1001.06
2018-08-11T09:48:20.389Z,1001.03
2018-08-11T09:49:20.441Z,1000.93
2018-08-11T09:50:20.475Z,1000.88
2018-08-11T09:51:20.517Z,1000.87
2018-08-11T09:52:20.631Z,1000.88
2018-08-11T09:53:20.608Z,1000.90
2018-08-11T09:54:22.227Z,1000.90
2018-08-11T09:55:20.689Z,1000.91
2018-08-11T09:56:20.727Z,1000.88
2018-08-11T09:57:20.770Z,1000.86
2018-08-11T09:58:20.816Z,1000.90
2018-08-11T09:59:20.861Z,1000.94
2018-08-11T10:00:20.899Z,1001.00
2018-08-11T10:01:20.938Z,1000.96
2018-08-11T10:02:20.977Z,1001.03
2018-08-11T10:03:21.030Z,1001.06
2018-08-11T10:04:21.063Z,1001.04
2018-08-11T10:05:21.124Z,1001.06
2018-08-11T10:06:21.143Z,1000.96
2018-08-11T10:07:21.187Z,1000.93
2018-08-11T10:08:21.231Z,1000.92
2018-08-11T10:09:21.269Z,1000.83
2018-08-11T10:10:21.310Z,1000.78
2018-08-11T10:11:21.351Z,1000.78
2018-08-11T10:12:21.393Z,1000.83
2018-08-11T10:13:21.435Z,1000.92
2018-08-11T10:14:21.484Z,1000.87
2018-08-11T10:15:21.519Z,1000.84
2018-08-11T10:16:21.559Z,1000.92
2018-08-11T10:17:21.601Z,1000.85
2018-08-11T10:18:21.667Z,1000.87
2018-08-11T10:19:21.684Z,1000.84
2018-08-11T10:20:21.729Z,1000.86
2018-08-11T10:21:21.800Z,1000.84
2018-08-11T10:22:21.806Z,1000.86
2018-08-11T10:23:21.850Z,1000.74
2018-08-11T10:24:21.897Z,1000.81
2018-08-11T10:25:21.934Z,1000.90
2018-08-11T10:26:21.997Z,1000.85
2018-08-11T10:27:22.014Z,1000.83
2018-08-11T10:28:22.055Z,1000.79
2018-08-11T10:29:22.096Z,1000.73
2018-08-11T10:30:22.136Z,1000.65
2018-08-11T10:31:22.178Z,1000.70
2018-08-11T10:32:22.228Z,1000.74
2018-08-11T10:33:22.264Z,1000.72
2018-08-11T10:34:22.313Z,1000.69
2018-08-11T10:35:22.346Z,1000.67
2018-08-11T10:36:22.385Z,1000.67
2018-08-11T10:37:22.432Z,1000.68
2018-08-11T10:38:22.468Z,1000.67
2018-08-11T10:39:22.508Z,1000.63
2018-08-11T10:40:22.625Z,1000.59
2018-08-11T10:41:22.593Z,1000.57
2018-08-11T10:42:22.631Z,1000.55
2018-08-11T10:43:22.674Z,1000.49
2018-08-11T10:44:22.721Z,1000.48
2018-08-11T10:45:22.770Z,1000.50
2018-08-11T10:46:22.797Z,1000.50
2018-08-11T10:47:22.838Z,1000.55
2018-08-11T10:48:22.885Z,1000.52
2018-08-11T10:49:22.927Z,1000.48
2018-08-11T10:50:22.983Z,1000.43
2018-08-11T10:51:23.000Z,1000.43
2018-08-11T10:52:23.042Z,1000.44
2018-08-11T10:53:23.106Z,1000.44
2018-08-11T10:54:23.128Z,1000.45
2018-08-11T10:55:23.182Z,1000.48
2018-08-11T10:56:23.205Z,1000.38
2018-08-11T10:57:23.246Z,1000.47
2018-08-11T10:58:23.288Z,1000.45
2018-08-11T10:59:23.336Z,1000.39
2018-08-11T11:00:23.373Z,1000.45
2018-08-11T11:01:23.486Z,1000.37
2018-08-11T11:02:23.451Z,1000.44
2018-08-11T11:03:23.493Z,1000.43
2018-08-11T11:04:23.548Z,1000.35
2018-08-11T11:05:23.576Z,1000.31
2018-08-11T11:06:23.623Z,1000.30
2018-08-11T11:07:23.655Z,1000.33
2018-08-11T11:08:23.732Z,1000.33
2018-08-11T11:09:23.744Z,1000.35
2018-08-11T11:10:23.780Z,1000.34
2018-08-11T11:11:23.821Z,1000.34
2018-08-11T11:12:23.866Z,1000.38
2018-08-11T11:13:23.908Z,1000.41
2018-08-11T11:14:24.013Z,1000.39
2018-08-11T11:15:23.995Z,1000.42
2018-08-11T11:16:24.028Z,1000.42
2018-08-11T11:17:24.069Z,1000.53
2018-08-11T11:18:24.110Z,1000.58
2018-08-11T11:19:24.153Z,1000.53
2018-08-11T11:20:24.194Z,1000.44
2018-08-11T11:21:24.237Z,1000.47
2018-08-11T11:22:24.278Z,1000.41
2018-08-11T11:23:24.319Z,1000.43
2018-08-11T11:24:24.366Z,1000.44
2018-08-11T11:25:24.403Z,1000.40
2018-08-11T11:26:24.446Z,1000.42
2018-08-11T11:27:24.489Z,1000.40
2018-08-11T11:28:24.529Z,1000.28
2018-08-11T11:29:24.587Z,1000.38
2018-08-11T11:30:24.616Z,1000.32
2018-08-11T11:31:24.659Z,1000.39
2018-08-11T11:32:24.717Z,1000.39
2018-08-11T11:33:24.743Z,1000.44
2018-08-11T11:34:24.784Z,1000.55
2018-08-11T11:35:24.824Z,1000.50
2018-08-11T11:36:24.875Z,1000.47
2018-08-11T11:37:24.982Z,1000.41
2018-08-11T11:38:24.955Z,1000.44
2018-08-11T11:39:24.993Z,1000.36
2018-08-11T11:40:25.037Z,1000.34
2018-08-11T11:41:25.079Z,1000.35
2018-08-11T11:42:25.121Z,1000.47
2018-08-11T11:43:25.284Z,1000.51
2018-08-11T11:44:25.207Z,1000.47
2018-08-11T11:45:25.254Z,1000.42
2018-08-11T11:46:25.295Z,1000.52
2018-08-11T11:47:25.335Z,1000.51
2018-08-11T11:48:25.429Z,1000.57
2018-08-11T11:49:25.425Z,1000.57
2018-08-11T11:50:25.469Z,1000.61
2018-08-11T11:51:25.505Z,1000.53
2018-08-11T11:52:25.912Z,1000.46
2018-08-11T11:53:25.599Z,1000.46
2018-08-11T11:54:25.640Z,1000.43
2018-08-11T11:55:25.727Z,1000.39
2018-08-11T11:56:25.728Z,1000.38
2018-08-11T11:57:25.781Z,1000.32
2018-08-11T11:58:25.803Z,1000.37
2018-08-11T11:59:25.844Z,1000.33
2018-08-11T12:00:25.908Z,1000.35
2018-08-11T12:01:25.942Z,1000.40
2018-08-11T12:02:25.973Z,1000.45
2018-08-11T12:03:26.015Z,1000.45
2018-08-11T12:04:26.070Z,1000.37
2018-08-11T12:05:26.102Z,1000.36
2018-08-11T12:06:26.141Z,1000.44
2018-08-11T12:07:26.223Z,1000.42
2018-08-11T12:08:26.228Z,1000.39
2018-08-11T12:09:26.280Z,1000.42
2018-08-11T12:10:26.313Z,1000.43
2018-08-11T12:11:26.359Z,1000.34
2018-08-11T12:12:26.397Z,1000.32
2018-08-11T12:13:26.450Z,1000.35
2018-08-11T12:14:26.481Z,1000.43
2018-08-11T12:15:26.537Z,1000.52
2018-08-11T12:16:26.568Z,1000.61
2018-08-11T12:17:26.608Z,1000.53